Mc Cormack Boys — WDB2090 — position and weather

sailwx.info

Track history (hours):
 
Tides and Currents Weather Stations Pressure Air Temp Water Temp Dewpoint Dewpoint Depression Visibility Wind Speed Wind Dir Waves Ship Positions

Mc Cormack Boys

Owner: Great Lakes Dredge & Dock Company, Oak Brook, IL. More information available from US FCC via Universal Licensing System and Coast Guard Vessel Documentation Center.

Last reported at 2018-Jun-19 00:36 UTC. Time now 2018-Jun-19 10:28 UTC.
Position N 32°46' W 079°52'.

Length 26 m; draft 0.4 m.

Type: Ship. MMSI: 366872170.

Date/timePositionNaut miles runAvg speedWind from/ knotsBaromVisibWave heightAir tempDewpointWater temp
2018-Jun-19 00:36N 32°46' W 079°52'1 8.1
2018-Jun-19 00:30N 32°46' W 079°53'3 6.9
2018-Jun-19 00:00N 32°49' W 079°56'1 0.5
2018-Jun-18 22:31N 32°48' W 079°55'1 6.1
2018-Jun-18 22:23N 32°48' W 079°55'2 4.4
2018-Jun-18 21:53N 32°46' W 079°53'0 0.0
2018-Jun-18 10:09N 32°46' W 079°53'1 7.5
2018-Jun-18 10:00N 32°46' W 079°55'4 7.3
2018-Jun-18 09:29N 32°49' W 079°56'1 0.1
2018-Jun-17 22:20N 32°49' W 079°55'2 5.2
2018-Jun-17 22:00N 32°47' W 079°55'  
2018-Jun-14 03:46N 32°46' W 079°53'1 4.2
2018-Jun-14 03:27N 32°45' W 079°55'0 0.2
2018-Jun-14 03:00N 32°45' W 079°54'0 0.1
2018-Jun-14 02:30N 32°45' W 079°54'0 0.0
2018-Jun-14 02:00N 32°45' W 079°54'0 0.0
2018-Jun-14 01:30N 32°45' W 079°54'0 0.0
2018-Jun-14 01:00N 32°45' W 079°54'0 0.0
2018-Jun-14 00:31N 32°45' W 079°54'0 0.0
2018-Jun-13 21:14N 32°45' W 079°55'0 0.2
2018-Jun-13 20:55N 32°45' W 079°55'0 0.1
2018-Jun-13 20:28N 32°45' W 079°55'0 0.0
2018-Jun-13 19:14N 32°45' W 079°54'0 0.1
2018-Jun-13 18:58N 32°45' W 079°54'3 7.3
2018-Jun-13 18:30N 32°49' W 079°56'1 1.3
2018-Jun-13 17:38N 32°50' W 079°56'0 0.2
2018-Jun-13 16:07N 32°50' W 079°56'0 0.0
2018-Jun-13 15:57N 32°50' W 079°56'0 0.0
2018-Jun-13 15:03N 32°50' W 079°56'0 0.0
2018-Jun-13 14:57N 32°50' W 079°56'0 0.0
2018-Jun-13 12:50N 32°50' W 079°56'1 1.8
2018-Jun-13 12:19N 32°50' W 079°57'2 0.3
2018-Jun-13 06:06N 32°49' W 079°56'1 5.4
2018-Jun-13 05:58N 32°48' W 079°56'3 5.6
2018-Jun-13 05:29N 32°46' W 079°55'0 0.3
2018-Jun-13 04:57N 32°45' W 079°54'0 0.0
2018-Jun-13 04:28N 32°45' W 079°54'0 0.0
2018-Jun-13 03:59N 32°45' W 079°54'0 0.0
2018-Jun-13 03:30N 32°45' W 079°54'0 0.0
2018-Jun-13 03:00N 32°45' W 079°54'0 0.0
2018-Jun-13 02:30N 32°45' W 079°54'0 0.0
2018-Jun-13 01:57N 32°45' W 079°54'0 0.0
2018-Jun-13 01:30N 32°45' W 079°54'0 0.0
2018-Jun-13 00:59N 32°45' W 079°54'0 0.0
2018-Jun-13 00:30N 32°45' W 079°54'1 2.7
2018-Jun-13 00:00N 32°47' W 079°55'3 6.0
2018-Jun-12 23:30N 32°50' W 079°56'1 1.9
2018-Jun-12 22:59N 32°50' W 079°57'0 0.0
2018-Jun-12 22:30N 32°50' W 079°57'0 0.0
2018-Jun-12 22:00N 32°50' W 079°57'0 0.0
2018-Jun-12 21:30N 32°50' W 079°57'0 0.0
2018-Jun-12 20:59N 32°50' W 079°57'0 0.0
2018-Jun-12 19:21N 32°50' W 079°57'2 3.8
2018-Jun-12 18:57N 32°49' W 079°56'4 0.7
2018-Jun-12 13:28N 32°46' W 079°53'1 2.0
2018-Jun-12 13:00N 32°45' W 079°55'0 0.0
2018-Jun-12 12:25N 32°45' W 079°55'0 0.0
2018-Jun-12 11:39N 32°45' W 079°55'0 0.0
2018-Jun-12 11:30N 32°45' W 079°55'0 0.0
2018-Jun-12 11:00N 32°45' W 079°55'1 1.5
2018-Jun-12 10:30N 32°46' W 079°55'4 6.7
2018-Jun-12 09:57N 32°50' W 079°56'1 0.2
2018-Jun-12 03:18N 32°48' W 079°56'2 5.0
2018-Jun-12 03:00N 32°47' W 079°55'2 4.0
2018-Jun-12 02:30N 32°45' W 079°54'0 0.0
2018-Jun-12 00:56N 32°45' W 079°54'0 0.0
2018-Jun-12 00:30N 32°45' W 079°54'1 0.4
2018-Jun-11 22:42N 32°45' W 079°55'0 0.0
2018-Jun-11 22:29N 32°45' W 079°55'0 0.0
2018-Jun-11 21:56N 32°45' W 079°55'0 0.0
2018-Jun-11 21:29N 32°45' W 079°55'0 0.0
2018-Jun-11 20:33N 32°45' W 079°55'0 0.0
2018-Jun-11 20:22N 32°45' W 079°55'0 0.0
2018-Jun-11 19:56N 32°45' W 079°55'0 0.0
2018-Jun-11 19:30N 32°45' W 079°55'0 0.0
2018-Jun-11 19:00N 32°45' W 079°55'0 0.0
2018-Jun-11 18:28N 32°45' W 079°55'0 0.0
2018-Jun-11 17:58N 32°45' W 079°55'0 0.0
2018-Jun-11 17:25N 32°45' W 079°55'0 0.0
2018-Jun-11 16:53N 32°45' W 079°55'0 0.8
2018-Jun-11 16:30N 32°46' W 079°54'0 0.1
2018-Jun-11 11:56N 32°45' W 079°55'0 0.4
2018-Jun-11 11:30N 32°45' W 079°54'0 0.0
2018-Jun-09 23:53N 32°45' W 079°54'1 3.0
2018-Jun-09 23:30N 32°46' W 079°55'4 6.8
2018-Jun-09 22:59N 32°50' W 079°56'1 0.9
2018-Jun-09 22:25N 32°50' W 079°57'1 0.7
2018-Jun-09 20:25N 32°49' W 079°56'3 6.5
2018-Jun-09 20:00N 32°46' W 079°55'1 0.2
2018-Jun-09 12:37N 32°45' W 079°54'0 0.3
2018-Jun-09 12:30N 32°45' W 079°54'0 0.7
2018-Jun-09 11:58N 32°45' W 079°54'1 2.6
2018-Jun-09 11:30N 32°46' W 079°55'4 7.2
2018-Jun-09 11:00N 32°50' W 079°56'0 0.3
2018-Jun-09 10:30N 32°50' W 079°57'  
Track history (hours):
 
Tides and Currents Weather Stations Pressure Air Temp Water Temp Dewpoint Dewpoint Depression Visibility Wind Speed Wind Dir Waves Ship Positions

Mc Cormack Boys

Owner: Great Lakes Dredge & Dock Company, Oak Brook, IL. More information available from US FCC via Universal Licensing System and Coast Guard Vessel Documentation Center.

Last reported at 2018-Jun-19 00:36 UTC. Time now 2018-Jun-19 10:28 UTC.
Position N 32°46' W 079°52'.

Length 26 m; draft 0.4 m.

Type: Ship. MMSI: 366872170.

Date/timePositionNaut miles runAvg speedWind from/ knotsBaromVisibWave heightAir tempDewpointWater temp
2018-Jun-19 00:36N 32°46' W 079°52'1 8.1
2018-Jun-19 00:30N 32°46' W 079°53'3 6.9
2018-Jun-19 00:00N 32°49' W 079°56'1 0.5
2018-Jun-18 22:31N 32°48' W 079°55'1 6.1
2018-Jun-18 22:23N 32°48' W 079°55'2 4.4
2018-Jun-18 21:53N 32°46' W 079°53'0 0.0
2018-Jun-18 10:09N 32°46' W 079°53'1 7.5
2018-Jun-18 10:00N 32°46' W 079°55'4 7.3
2018-Jun-18 09:29N 32°49' W 079°56'1 0.1
2018-Jun-17 22:20N 32°49' W 079°55'2 5.2
2018-Jun-17 22:00N 32°47' W 079°55'  
2018-Jun-14 03:46N 32°46' W 079°53'1 4.2
2018-Jun-14 03:27N 32°45' W 079°55'0 0.2
2018-Jun-14 03:00N 32°45' W 079°54'0 0.1
2018-Jun-14 02:30N 32°45' W 079°54'0 0.0
2018-Jun-14 02:00N 32°45' W 079°54'0 0.0
2018-Jun-14 01:30N 32°45' W 079°54'0 0.0
2018-Jun-14 01:00N 32°45' W 079°54'0 0.0
2018-Jun-14 00:31N 32°45' W 079°54'0 0.0
2018-Jun-13 21:14N 32°45' W 079°55'0 0.2
2018-Jun-13 20:55N 32°45' W 079°55'0 0.1
2018-Jun-13 20:28N 32°45' W 079°55'0 0.0
2018-Jun-13 19:14N 32°45' W 079°54'0 0.1
2018-Jun-13 18:58N 32°45' W 079°54'3 7.3
2018-Jun-13 18:30N 32°49' W 079°56'1 1.3
2018-Jun-13 17:38N 32°50' W 079°56'0 0.2
2018-Jun-13 16:07N 32°50' W 079°56'0 0.0
2018-Jun-13 15:57N 32°50' W 079°56'0 0.0
2018-Jun-13 15:03N 32°50' W 079°56'0 0.0
2018-Jun-13 14:57N 32°50' W 079°56'0 0.0
2018-Jun-13 12:50N 32°50' W 079°56'1 1.8
2018-Jun-13 12:19N 32°50' W 079°57'2 0.3
2018-Jun-13 06:06N 32°49' W 079°56'1 5.4
2018-Jun-13 05:58N 32°48' W 079°56'3 5.6
2018-Jun-13 05:29N 32°46' W 079°55'0 0.3
2018-Jun-13 04:57N 32°45' W 079°54'0 0.0
2018-Jun-13 04:28N 32°45' W 079°54'0 0.0
2018-Jun-13 03:59N 32°45' W 079°54'0 0.0
2018-Jun-13 03:30N 32°45' W 079°54'0 0.0
2018-Jun-13 03:00N 32°45' W 079°54'0 0.0
2018-Jun-13 02:30N 32°45' W 079°54'0 0.0
2018-Jun-13 01:57N 32°45' W 079°54'0 0.0
2018-Jun-13 01:30N 32°45' W 079°54'0 0.0
2018-Jun-13 00:59N 32°45' W 079°54'0 0.0
2018-Jun-13 00:30N 32°45' W 079°54'1 2.7
2018-Jun-13 00:00N 32°47' W 079°55'3 6.0
2018-Jun-12 23:30N 32°50' W 079°56'1 1.9
2018-Jun-12 22:59N 32°50' W 079°57'0 0.0
2018-Jun-12 22:30N 32°50' W 079°57'0 0.0
2018-Jun-12 22:00N 32°50' W 079°57'0 0.0
2018-Jun-12 21:30N 32°50' W 079°57'0 0.0
2018-Jun-12 20:59N 32°50' W 079°57'0 0.0
2018-Jun-12 19:21N 32°50' W 079°57'2 3.8
2018-Jun-12 18:57N 32°49' W 079°56'4 0.7
2018-Jun-12 13:28N 32°46' W 079°53'1 2.0
2018-Jun-12 13:00N 32°45' W 079°55'0 0.0
2018-Jun-12 12:25N 32°45' W 079°55'0 0.0
2018-Jun-12 11:39N 32°45' W 079°55'0 0.0
2018-Jun-12 11:30N 32°45' W 079°55'0 0.0
2018-Jun-12 11:00N 32°45' W 079°55'1 1.5
2018-Jun-12 10:30N 32°46' W 079°55'4 6.7
2018-Jun-12 09:57N 32°50' W 079°56'1 0.2
2018-Jun-12 03:18N 32°48' W 079°56'2 5.0
2018-Jun-12 03:00N 32°47' W 079°55'2 4.0
2018-Jun-12 02:30N 32°45' W 079°54'0 0.0
2018-Jun-12 00:56N 32°45' W 079°54'0 0.0
2018-Jun-12 00:30N 32°45' W 079°54'1 0.4
2018-Jun-11 22:42N 32°45' W 079°55'0 0.0
2018-Jun-11 22:29N 32°45' W 079°55'0 0.0
2018-Jun-11 21:56N 32°45' W 079°55'0 0.0
2018-Jun-11 21:29N 32°45' W 079°55'0 0.0
2018-Jun-11 20:33N 32°45' W 079°55'0 0.0
2018-Jun-11 20:22N 32°45' W 079°55'0 0.0
2018-Jun-11 19:56N 32°45' W 079°55'0 0.0
2018-Jun-11 19:30N 32°45' W 079°55'0 0.0
2018-Jun-11 19:00N 32°45' W 079°55'0 0.0
2018-Jun-11 18:28N 32°45' W 079°55'0 0.0
2018-Jun-11 17:58N 32°45' W 079°55'0 0.0
2018-Jun-11 17:25N 32°45' W 079°55'0 0.0
2018-Jun-11 16:53N 32°45' W 079°55'0 0.8
2018-Jun-11 16:30N 32°46' W 079°54'0 0.1
2018-Jun-11 11:56N 32°45' W 079°55'0 0.4
2018-Jun-11 11:30N 32°45' W 079°54'0 0.0
2018-Jun-09 23:53N 32°45' W 079°54'1 3.0
2018-Jun-09 23:30N 32°46' W 079°55'4 6.8
2018-Jun-09 22:59N 32°50' W 079°56'1 0.9
2018-Jun-09 22:25N 32°50' W 079°57'1 0.7
2018-Jun-09 20:25N 32°49' W 079°56'3 6.5
2018-Jun-09 20:00N 32°46' W 079°55'1 0.2
2018-Jun-09 12:37N 32°45' W 079°54'0 0.3
2018-Jun-09 12:30N 32°45' W 079°54'0 0.7
2018-Jun-09 11:58N 32°45' W 079°54'1 2.6
2018-Jun-09 11:30N 32°46' W 079°55'4 7.2
2018-Jun-09 11:00N 32°50' W 079°56'0 0.3
2018-Jun-09 10:30N 32°50' W 079°57'  

Dump ship's entire track history